Glenn Dale, Maryland
Current Conditions -  °F | °C
As of 9:00 AM on Wednesday 28 Jan 2015 (Local Time) from KCGS Reporting Station
Clear Clear  
Wind Chill: 19°   Ceiling: Unl
Heat Index: 27°   Visibility: 10mi
Dew Point:   Wind: 7mph
Humidity: 47%   Direction: 310°NW
Pressure: 30.2"   Gusts: NA
Location:  38.99°N, 76.82°W
Report Text: KCGS 281400Z AUTO 31006KT 10SM CLR M03/M13 A3020 RMK AO1
Loading
Personal Weather Stations






























Interactive Weather Map New forecast layout! Learn more

10-Day Weather Forecast

Advertisements
Track Severe Weather on mobile